Time,TemperatureF,DewpointF,PressureIn,WindDirection,WindDirectionDegrees,WindSpeedMPH,WindSpeedGustMPH,Humidity,HourlyPrecipIn,Conditions,Clouds,dailyrainin,SoftwareType,DateUTC
2013-01-16 00:23:00,18.0,-99.9,30.01,SSE,164,0.0,1.0,-999,-99.99,,,-99.99,,2013-01-16 05:23:00,
2013-01-16 00:33:00,-999.0,-99.9,30.00,SE,138,2.0,2.0,-999,-99.99,,,-99.99,,2013-01-16 05:33:00,
2013-01-16 00:43:00,-999.0,-99.9,29.99,SE,140,2.0,3.0,-999,-99.99,,,-99.99,,2013-01-16 05:43:00,
2013-01-16 00:53:00,-999.0,-99.9,29.98,SE,134,1.0,3.0,-999,-99.99,,,-99.99,,2013-01-16 05:53:00,
2013-01-16 01:12:00,-999.0,-99.9,29.97,SE,135,1.0,2.0,-999,-99.99,,,-99.99,,2013-01-16 06:12:00,
2013-01-16 01:22:00,15.0,-99.9,29.97,SE,140,1.0,2.0,-999,-99.99,,,-99.99,,2013-01-16 06:22:00,
2013-01-16 01:33:00,-999.0,-99.9,29.96,East,81,0.0,1.0,-999,-99.99,,,-99.99,,2013-01-16 06:33:00,
2013-01-16 01:43:00,-999.0,-99.9,29.96,NNE,30,1.0,2.0,-999,-99.99,,,-99.99,,2013-01-16 06:43:00,
2013-01-16 01:53:00,19.0,-99.9,29.96,NNE,30,0.0,1.0,-999,-99.99,,,-99.99,,2013-01-16 06:53:00,
2013-01-16 02:02:00,-999.0,-99.9,29.95,East,92,0.0,1.0,-999,-99.99,,,-99.99,,2013-01-16 07:02:00,
2013-01-16 02:12:00,-999.0,-99.9,29.94,ENE,78,2.0,3.0,-999,-99.99,,,-99.99,,2013-01-16 07:12:00,
2013-01-16 02:22:00,-999.0,-99.9,29.94,East,101,2.0,4.0,-999,-99.99,,,-99.99,,2013-01-16 07:22:00,
2013-01-16 02:33:00,-999.0,-99.9,29.93,East,94,3.0,4.0,-999,-99.99,,,-99.99,,2013-01-16 07:33:00,
2013-01-16 02:42:00,-999.0,-99.9,29.93,SE,131,1.0,2.0,-999,-99.99,,,-99.99,,2013-01-16 07:42:00,
2013-01-16 02:52:00,19.0,-99.9,29.93,ESE,104,1.0,1.0,-999,-99.99,,,-99.99,,2013-01-16 07:52:00,
2013-01-16 03:03:00,-999.0,-99.9,29.92,ESE,111,2.0,2.0,-999,-99.99,,,-99.99,,2013-01-16 08:03:00,
2013-01-16 03:23:00,18.0,-99.9,29.91,SE,136,0.0,1.0,-999,-99.99,,,-99.99,,2013-01-16 08:23:00,
2013-01-16 03:33:00,-999.0,-99.9,29.90,South,186,2.0,2.0,-999,-99.99,,,-99.99,,2013-01-16 08:33:00,
2013-01-16 03:42:00,-999.0,-99.9,29.89,South,180,3.0,4.0,-999,-99.99,,,-99.99,,2013-01-16 08:42:00,
2013-01-16 03:53:00,-999.0,-99.9,29.89,South,183,4.0,4.0,-999,-99.99,,,-99.99,,2013-01-16 08:53:00,
2013-01-16 04:02:00,-999.0,-99.9,29.89,South,181,4.0,4.0,-999,-99.99,,,-99.99,,2013-01-16 09:02:00,
2013-01-16 04:12:00,-999.0,-99.9,29.87,South,177,4.0,4.0,-999,-99.99,,,-99.99,,2013-01-16 09:12:00,
2013-01-16 04:22:00,22.0,-99.9,29.87,South,175,4.0,5.0,-999,-99.99,,,-99.99,,2013-01-16 09:22:00,
2013-01-16 04:33:00,-999.0,-99.9,29.86,South,180,3.0,5.0,-999,-99.99,,,-99.99,,2013-01-16 09:33:00,
2013-01-16 04:43:00,-999.0,-99.9,29.85,South,173,4.0,4.0,-999,-99.99,,,-99.99,,2013-01-16 09:43:00,
2013-01-16 04:53:00,22.0,-99.9,29.85,South,172,3.0,4.0,-999,-99.99,,,-99.99,,2013-01-16 09:53:00,
2013-01-16 05:03:00,-999.0,-99.9,29.83,SSE,165,4.0,4.0,-999,-99.99,,,-99.99,,2013-01-16 10:03:00,
2013-01-16 05:12:00,21.0,-99.9,29.83,South,178,4.0,5.0,-999,-99.99,,,-99.99,,2013-01-16 10:12:00,
2013-01-16 05:22:00,-999.0,-99.9,29.81,SSE,166,4.0,5.0,-999,-99.99,,,-99.99,,2013-01-16 10:22:00,
2013-01-16 05:33:00,-999.0,-99.9,29.80,South,185,4.0,6.0,-999,-99.99,,,-99.99,,2013-01-16 10:33:00,
2013-01-16 05:43:00,-999.0,-99.9,29.80,South,177,4.0,5.0,-999,-99.99,,,-99.99,,2013-01-16 10:43:00,
2013-01-16 05:53:00,21.0,-99.9,29.79,South,176,5.0,6.0,-999,-99.99,,,-99.99,,2013-01-16 10:53:00,
2013-01-16 06:02:00,-999.0,-99.9,29.78,South,169,5.0,7.0,-999,-99.99,,,-99.99,,2013-01-16 11:02:00,
2013-01-16 06:12:00,-999.0,-99.9,29.78,South,171,6.0,8.0,-999,-99.99,,,-99.99,,2013-01-16 11:12:00,
2013-01-16 06:23:00,23.0,-99.9,29.77,SSE,164,6.0,8.0,-999,-99.99,,,-99.99,,2013-01-16 11:23:00,
2013-01-16 06:33:00,-999.0,-99.9,29.76,SSE,165,7.0,10.0,-999,-99.99,,,-99.99,,2013-01-16 11:33:00,
2013-01-16 06:43:00,24.0,-99.9,29.75,SSE,165,6.0,10.0,-999,-99.99,,,-99.99,,2013-01-16 11:43:00,
2013-01-16 06:53:00,-999.0,-99.9,29.75,SSE,167,7.0,10.0,-999,-99.99,,,-99.99,,2013-01-16 11:53:00,
2013-01-16 07:03:00,-999.0,-99.9,29.74,SSE,160,8.0,11.0,-999,-99.99,,,-99.99,,2013-01-16 12:03:00,
2013-01-16 07:13:00,-999.0,-99.9,29.73,South,169,9.0,13.0,-999,-99.99,,,-99.99,,2013-01-16 12:13:00,
2013-01-16 07:22:00,25.0,-99.9,29.72,South,171,10.0,13.0,-999,-99.99,,,-99.99,,2013-01-16 12:22:00,
2013-01-16 07:33:00,-999.0,-99.9,29.71,South,171,12.0,16.0,-999,-99.99,,,-99.99,,2013-01-16 12:33:00,
2013-01-16 07:43:00,-999.0,-99.9,29.70,South,173,12.0,16.0,-999,-99.99,,,-99.99,,2013-01-16 12:43:00,
2013-01-16 07:53:00,25.0,-99.9,29.70,South,170,11.0,17.0,-999,-99.99,,,-99.99,,2013-01-16 12:53:00,
2013-01-16 08:03:00,-999.0,-99.9,29.70,South,178,15.0,21.0,-999,-99.99,,,-99.99,,2013-01-16 13:03:00,
2013-01-16 08:13:00,-999.0,-99.9,29.70,South,180,13.0,17.0,-999,-99.99,,,-99.99,,2013-01-16 13:13:00,
2013-01-16 08:23:00,26.0,-99.9,29.69,South,179,13.0,17.0,-999,-99.99,,,-99.99,,2013-01-16 13:23:00,
2013-01-16 08:33:00,-999.0,-99.9,29.68,South,181,14.0,21.0,-999,-99.99,,,-99.99,,2013-01-16 13:33:00,
2013-01-16 08:43:00,-999.0,-99.9,29.67,South,181,14.0,20.0,-999,-99.99,,,-99.99,,2013-01-16 13:43:00,
2013-01-16 08:53:00,27.0,-99.9,29.67,South,180,15.0,21.0,-999,-99.99,,,-99.99,,2013-01-16 13:53:00,
2013-01-16 09:03:00,-999.0,-99.9,29.67,South,184,15.0,19.0,-999,-99.99,,,-99.99,,2013-01-16 14:03:00,
2013-01-16 09:12:00,-999.0,-99.9,29.66,South,189,13.0,20.0,-999,-99.99,,,-99.99,,2013-01-16 14:12:00,
2013-01-16 09:23:00,27.0,-99.9,29.66,South,184,15.0,19.0,-999,-99.99,,,-99.99,,2013-01-16 14:23:00,
2013-01-16 09:33:00,-999.0,-99.9,29.66,South,188,17.0,21.0,-999,-99.99,,,-99.99,,2013-01-16 14:33:00,
2013-01-16 09:43:00,-999.0,-99.9,29.65,South,185,16.0,23.0,-999,-99.99,,,-99.99,,2013-01-16 14:43:00,
2013-01-16 09:53:00,27.0,-99.9,29.64,South,182,15.0,21.0,-999,-99.99,,,-99.99,,2013-01-16 14:53:00,
2013-01-16 10:03:00,-999.0,-99.9,29.63,South,182,16.0,21.0,-999,-99.99,,,-99.99,,2013-01-16 15:03:00,
2013-01-16 10:12:00,-999.0,-99.9,29.62,South,186,15.0,21.0,-999,-99.99,,,-99.99,,2013-01-16 15:12:00,
2013-01-16 10:23:00,-999.0,-99.9,29.62,South,188,12.0,19.0,-999,-99.99,,,-99.99,,2013-01-16 15:23:00,
2013-01-16 10:33:00,-999.0,-99.9,29.62,SSW,198,9.0,16.0,-999,-99.99,,,-99.99,,2013-01-16 15:33:00,
2013-01-16 10:43:00,-999.0,-99.9,29.61,SSW,194,10.0,20.0,-999,-99.99,,,-99.99,,2013-01-16 15:43:00,
2013-01-16 10:53:00,27.0,-99.9,29.61,SSW,194,12.0,16.0,-999,-99.99,,,-99.99,,2013-01-16 15:53:00,
2013-01-16 11:04:00,-999.0,-99.9,29.60,SSW,193,11.0,16.0,-999,-99.99,,,-99.99,,2013-01-16 16:04:00,
2013-01-16 11:12:00,-999.0,-99.9,29.59,South,186,12.0,19.0,-999,-99.99,,,-99.99,,2013-01-16 16:12:00,
2013-01-16 11:23:00,27.0,-99.9,29.59,South,189,9.0,15.0,-999,-99.99,,,-99.99,,2013-01-16 16:23:00,
2013-01-16 11:33:00,-999.0,-99.9,29.59,SSW,202,9.0,18.0,-999,-99.99,,,-99.99,,2013-01-16 16:33:00,
2013-01-16 11:43:00,-999.0,-99.9,29.59,SSW,208,6.0,12.0,-999,-99.99,,,-99.99,,2013-01-16 16:43:00,
2013-01-16 11:53:00,27.0,-99.9,29.59,SW,219,6.0,9.0,-999,-99.99,,,-99.99,,2013-01-16 16:53:00,
2013-01-16 12:03:00,-999.0,-99.9,29.58,SW,234,5.0,9.0,-999,-99.99,,,-99.99,,2013-01-16 17:03:00,
2013-01-16 12:12:00,-999.0,-99.9,29.57,WSW,244,8.0,17.0,-999,-99.99,,,-99.99,,2013-01-16 17:12:00,
2013-01-16 12:23:00,29.0,-99.9,29.57,SW,236,9.0,14.0,-999,-99.99,,,-99.99,,2013-01-16 17:23:00,
2013-01-16 12:33:00,-999.0,-99.9,29.57,WSW,252,13.0,21.0,-999,-99.99,,,-99.99,,2013-01-16 17:33:00,
2013-01-16 12:44:00,-999.0,-99.9,29.57,WSW,254,15.0,26.0,-999,-99.99,,,-99.99,,2013-01-16 17:44:00,
2013-01-16 12:53:00,29.0,-99.9,29.56,WSW,253,17.0,25.0,-999,-99.99,,,-99.99,,2013-01-16 17:53:00,
2013-01-16 13:03:00,-999.0,-99.9,29.55,WSW,246,16.0,29.0,-999,-99.99,,,-99.99,,2013-01-16 18:03:00,
2013-01-16 13:13:00,-999.0,-99.9,29.55,WSW,250,11.0,19.0,-999,-99.99,,,-99.99,,2013-01-16 18:13:00,
2013-01-16 13:23:00,-999.0,-99.9,29.55,WSW,256,14.0,22.0,-999,-99.99,,,-99.99,,2013-01-16 18:23:00,
2013-01-16 13:33:00,-999.0,-99.9,29.55,West,259,14.0,28.0,-999,-99.99,,,-99.99,,2013-01-16 18:33:00,
2013-01-16 13:43:00,-999.0,-99.9,29.55,West,266,14.0,21.0,-999,-99.99,,,-99.99,,2013-01-16 18:43:00,
2013-01-16 13:53:00,29.0,-99.9,29.54,West,267,15.0,20.0,-999,-99.99,,,-99.99,,2013-01-16 18:53:00,
2013-01-16 14:03:00,-999.0,-99.9,29.55,West,272,13.0,24.0,-999,-99.99,,,-99.99,,2013-01-16 19:03:00,
2013-01-16 14:13:00,-999.0,-99.9,29.55,West,262,13.0,21.0,-999,-99.99,,,-99.99,,2013-01-16 19:13:00,
2013-01-16 14:23:00,28.0,-99.9,29.55,WSW,257,11.0,22.0,-999,-99.99,,,-99.99,,2013-01-16 19:23:00,
2013-01-16 14:33:00,-999.0,-99.9,29.55,West,266,16.0,24.0,-999,-99.99,,,-99.99,,2013-01-16 19:33:00,
2013-01-16 14:43:00,-999.0,-99.9,29.55,West,268,15.0,20.0,-999,-99.99,,,-99.99,,2013-01-16 19:43:00,
2013-01-16 14:53:00,28.0,-99.9,29.56,WSW,252,10.0,15.0,-999,-99.99,,,-99.99,,2013-01-16 19:53:00,
2013-01-16 15:03:00,-999.0,-99.9,29.56,WSW,258,14.0,21.0,-999,-99.99,,,-99.99,,2013-01-16 20:03:00,
2013-01-16 15:12:00,-999.0,-99.9,29.56,WSW,248,12.0,21.0,-999,-99.99,,,-99.99,,2013-01-16 20:12:00,
2013-01-16 15:23:00,28.0,-99.9,29.56,WSW,244,17.0,22.0,-999,-99.99,,,-99.99,,2013-01-16 20:23:00,
2013-01-16 15:33:00,-999.0,-99.9,29.57,WSW,248,14.0,22.0,-999,-99.99,,,-99.99,,2013-01-16 20:33:00,
2013-01-16 15:43:00,-999.0,-99.9,29.57,WSW,250,13.0,19.0,-999,-99.99,,,-99.99,,2013-01-16 20:43:00,
2013-01-16 15:53:00,28.0,-99.9,29.58,WSW,254,13.0,19.0,-999,-99.99,,,-99.99,,2013-01-16 20:53:00,
2013-01-16 16:03:00,-999.0,-99.9,29.58,West,259,12.0,18.0,-999,-99.99,,,-99.99,,2013-01-16 21:03:00,
2013-01-16 16:13:00,-999.0,-99.9,29.59,WSW,258,12.0,20.0,-999,-99.99,,,-99.99,,2013-01-16 21:13:00,
2013-01-16 16:23:00,28.0,-99.9,29.59,WSW,258,12.0,21.0,-999,-99.99,,,-99.99,,2013-01-16 21:23:00,
2013-01-16 16:33:00,-999.0,-99.9,29.60,WSW,255,11.0,18.0,-999,-99.99,,,-99.99,,2013-01-16 21:33:00,
2013-01-16 16:43:00,-999.0,-99.9,29.60,WSW,255,10.0,16.0,-999,-99.99,,,-99.99,,2013-01-16 21:43:00,
2013-01-16 16:53:00,-999.0,-99.9,29.60,West,269,10.0,17.0,-999,-99.99,,,-99.99,,2013-01-16 21:53:00,
2013-01-16 17:03:00,-999.0,-99.9,29.61,West,264,11.0,19.0,-999,-99.99,,,-99.99,,2013-01-16 22:03:00,
2013-01-16 17:12:00,-999.0,-99.9,29.61,West,262,10.0,18.0,-999,-99.99,,,-99.99,,2013-01-16 22:12:00,
2013-01-16 17:23:00,28.0,-99.9,29.62,West,265,13.0,19.0,-999,-99.99,,,-99.99,,2013-01-16 22:23:00,
2013-01-16 17:33:00,-999.0,-99.9,29.63,West,263,11.0,17.0,-999,-99.99,,,-99.99,,2013-01-16 22:33:00,
2013-01-16 17:43:00,-999.0,-99.9,29.64,West,271,11.0,16.0,-999,-99.99,,,-99.99,,2013-01-16 22:43:00,
2013-01-16 17:53:00,28.0,-99.9,29.64,West,273,13.0,18.0,-999,-99.99,,,-99.99,,2013-01-16 22:53:00,
2013-01-16 18:03:00,-999.0,-99.9,29.66,WNW,284,11.0,16.0,-999,-99.99,,,-99.99,,2013-01-16 23:03:00,
2013-01-16 18:12:00,-999.0,-99.9,29.67,NW,308,14.0,26.0,-999,-99.99,,,-99.99,,2013-01-16 23:12:00,
2013-01-16 18:23:00,-999.0,-99.9,29.67,WNW,296,17.0,23.0,-999,-99.99,,,-99.99,,2013-01-16 23:23:00,
2013-01-16 18:33:00,-999.0,-99.9,29.68,WNW,302,17.0,22.0,-999,-99.99,,,-99.99,,2013-01-16 23:33:00,
2013-01-16 18:43:00,-999.0,-99.9,29.69,WNW,301,20.0,31.0,-999,-99.99,,,-99.99,,2013-01-16 23:43:00,
2013-01-16 18:53:00,27.0,-99.9,29.70,NW,312,25.0,36.0,-999,-99.99,,,-99.99,,2013-01-16 23:53:00,
2013-01-16 19:03:00,-999.0,-99.9,29.70,NW,319,23.0,37.0,-999,-99.99,,,-99.99,,2013-01-17 00:03:00,
2013-01-16 19:12:00,-999.0,-99.9,29.72,NW,313,23.0,34.0,-999,-99.99,,,-99.99,,2013-01-17 00:12:00,
2013-01-16 19:23:00,26.0,-99.9,29.72,NW,313,23.0,33.0,-999,-99.99,,,-99.99,,2013-01-17 00:23:00,
2013-01-16 19:33:00,-999.0,-99.9,29.73,NW,323,21.0,32.0,-999,-99.99,,,-99.99,,2013-01-17 00:33:00,
2013-01-16 19:43:00,-999.0,-99.9,29.75,NW,320,20.0,30.0,-999,-99.99,,,-99.99,,2013-01-17 00:43:00,
2013-01-16 19:53:00,24.0,-99.9,29.76,NW,324,21.0,26.0,-999,-99.99,,,-99.99,,2013-01-17 00:53:00,
2013-01-16 20:03:00,-999.0,-99.9,29.77,NNW,330,17.0,24.0,-999,-99.99,,,-99.99,,2013-01-17 01:03:00,
2013-01-16 20:12:00,-999.0,-99.9,29.78,NNW,332,19.0,23.0,-999,-99.99,,,-99.99,,2013-01-17 01:12:00,
2013-01-16 20:22:00,23.0,-99.9,29.79,NNW,333,17.0,22.0,-999,-99.99,,,-99.99,,2013-01-17 01:22:00,
2013-01-16 20:33:00,-999.0,-99.9,29.79,NW,325,20.0,29.0,-999,-99.99,,,-99.99,,2013-01-17 01:33:00,
2013-01-16 20:43:00,-999.0,-99.9,29.80,NW,308,21.0,32.0,-999,-99.99,,,-99.99,,2013-01-17 01:43:00,
2013-01-16 20:53:00,22.0,-99.9,29.81,NNW,331,26.0,31.0,-999,-99.99,,,-99.99,,2013-01-17 01:53:00,
2013-01-16 21:02:00,-999.0,-99.9,29.81,NW,314,19.0,26.0,-999,-99.99,,,-99.99,,2013-01-17 02:02:00,
2013-01-16 21:12:00,-999.0,-99.9,29.82,NW,322,20.0,32.0,-999,-99.99,,,-99.99,,2013-01-17 02:12:00,
2013-01-16 21:22:00,20.0,-99.9,29.83,NW,314,21.0,26.0,-999,-99.99,,,-99.99,,2013-01-17 02:22:00,
2013-01-16 21:32:00,-999.0,-99.9,29.83,NW,325,19.0,26.0,-999,-99.99,,,-99.99,,2013-01-17 02:32:00,
2013-01-16 21:43:00,-999.0,-99.9,29.83,NW,325,19.0,26.0,-999,-99.99,,,-99.99,,2013-01-17 02:43:00,
2013-01-16 21:52:00,-999.0,-99.9,29.83,NW,325,19.0,26.0,-999,-99.99,,,-99.99,,2013-01-17 02:52:00,
2013-01-16 22:03:00,-999.0,-99.9,29.85,NNW,344,19.0,24.0,-999,-99.99,,,-99.99,,2013-01-17 03:03:00,
2013-01-16 22:12:00,-999.0,-99.9,29.86,NNW,341,17.0,28.0,-999,-99.99,,,-99.99,,2013-01-17 03:12:00,
2013-01-16 22:22:00,18.0,-99.9,29.87,NNW,345,20.0,26.0,-999,-99.99,,,-99.99,,2013-01-17 03:22:00,
2013-01-16 22:33:00,-999.0,-99.9,29.88,NNW,335,16.0,24.0,-999,-99.99,,,-99.99,,2013-01-17 03:33:00,
2013-01-16 22:43:00,-999.0,-99.9,29.89,NNW,348,18.0,26.0,-999,-99.99,,,-99.99,,2013-01-17 03:43:00,
2013-01-16 22:53:00,16.0,-99.9,29.89,North,352,18.0,21.0,-999,-99.99,,,-99.99,,2013-01-17 03:53:00,
2013-01-16 23:03:00,-999.0,-99.9,29.90,NNW,346,22.0,28.0,-999,-99.99,,,-99.99,,2013-01-17 04:03:00,
2013-01-16 23:12:00,-999.0,-99.9,29.91,NNW,346,17.0,27.0,-999,-99.99,,,-99.99,,2013-01-17 04:12:00,
2013-01-16 23:23:00,16.0,-99.9,29.92,NNW,341,15.0,24.0,-999,-99.99,,,-99.99,,2013-01-17 04:23:00,
2013-01-16 23:33:00,-999.0,-99.9,29.92,North,354,17.0,25.0,-999,-99.99,,,-99.99,,2013-01-17 04:33:00,
2013-01-16 23:43:00,-999.0,-99.9,29.93,NNW,348,18.0,24.0,-999,-99.99,,,-99.99,,2013-01-17 04:43:00,
2013-01-16 23:53:00,14.0,-99.9,29.94,North,358,14.0,17.0,-999,-99.99,,,-99.99,,2013-01-17 04:53:00,